Aérodrome :
LOGIN :

S'inscrire | Disclaimer

   EN    FR    IT 

 










Légende :    VFR   VFR Marginal   IFR   IFR Intensif   IFR Très Intensif
Visi : 
Plafond : 
>= 8 km
>= 3000ft
5 à 8 km
1000 à 3000 ft
1500m à 5 km
500 à 1000 ft
800 à 1500m
200 à 500 ft
< 800m
< 200 ft
Symboles :   Orages  Brouillard  Fortes neiges  Fortes précipitations  Vent > 20 kt
SIGMETs :   Divers  Orages  Givrage  Turbulence  Onde Orograph.  Cendres Volcan.






- Altitude de l'aérodrome : 348 ft
- Code IATA : LDV


LFRJ - Landivisiau

DERNIER METAR :
  • 261730Z AUTO 24007KT 9999 -RA FEW017 BKN024 BKN034 06/04 Q1014 BECMG 18010KT BKN012

METARs EXPIRÉS :
  • 261700Z AUTO 32006KT 270V340 6000 RA FEW012/// SCT019/// BKN024/// ///TCU 05/04 Q1014 TEMPO BKN012 BECMG NSW
  • 261630Z AUTO 25009KT 9999 FEW039/// BKN046/// BKN064/// ///TCU 07/03 Q1014 TEMPO BKN012
  • 261600Z AUTO 27010KT 9999 FEW036/// SCT052/// BKN066/// ///TCU 08/01 Q1014 TEMPO 28015G25KT 4000 SHRA BECMG SCT035 SCT045
  • 261530Z AUTO 27014KT 9999 SCT033 SCT045 BKN054 08/01 Q1014 TEMPO 28015G25KT 4000 SHRA BKN015TCU
  • 261500Z AUTO 28010KT 9999 SCT036 SCT043 BKN049 08/02 Q1014 TEMPO 28015G25KT 4000 SHRA BKN015TCU

TAF TAF LFRJ
Valide du 26 à 18h jusqu'au 27 à 03h UTC


261700Z 2618/2703 28010KT 9999 BKN025
BECMG 2619/2621 18010KT BKN012
BECMG 2621/2623 3000 RADZ BR BKN008
BECMG 2623/2701 20017G30KT



MET'MAP, la Météo Aéronautique d'un coup d'oeil ! - Copyright ORBIFLY Décembre 2007 - Disclaimer

ORBIFLY MET'MAP TEAM :

Programmation & Développement : Alexandra Zaïnal
Sur une idée originale de : Baudouin d'Aumeries
Assistance à la programmation : Marc-Olivier Méhu
Soutien technique & logistique : Manuel Goepfert

Contact : metmap@orbifly.com




SOURCES & CREDITS :

   NOAA